Hunter, Oklahoma
Current Conditions -  °F | °C
As of 2:50 PM on Monday 24 Nov 2014 (Local Time) from KWDG Reporting Station
Few Clouds Few Clouds  
Wind Chill: 59°   Ceiling: Unl
Heat Index: 59°   Visibility: 10mi
Dew Point: 21°   Wind: 21mph
Humidity: 23%   Direction: 290°WNW
Pressure: 29.95"   Gusts: 29mph
Location:  36.56°N, 97.66°W
Report Text: KWDG 242050Z 29018G25KT 10SM FEW130 15/M06 A2995
Loading
Personal Weather Stations






























Interactive Weather Map New forecast layout! Learn more

10-Day Weather Forecast

Advertisements
Track Severe Weather on mobile